Meteorología y climatología de Navarra
Datos de la estación - Meteo Navarra

Estación de Aguilar de Codés GN

Altitud 736 m.


Datos desde el 16/09/2020 hasta el 17/09/2020 en horario solar
Los datos son PROVISIONALES

Anterior Página 1 de 1 Siguiente Descargar: Formato para Excel 2000 o superior   Formato csv   Formato para OpenOffice Calc
Fecha Temperatura Humedad relativa Radiación global Insolación Precipitación Vel. viento 10 m Vel. viento 10 m Dir. viento 10 m
ºC % W/m² s l/m² m/s km/h º
16/09/2020 0:00 19.4 69 0.0 0 0.0 1.0 3.5 280
16/09/2020 0:10 19.5 68 0.0 0 0.0 0.7 2.4 295
16/09/2020 0:20 19.2 69 0.0 0 0.0 0.5 1.9 304
16/09/2020 0:30 18.5 72 0.0 0 0.0 0.3 1.1 314
16/09/2020 0:40 18.2 73 0.0 0 0.0 0.9 3.3 325
16/09/2020 0:50 17.7 75 0.0 0 0.0 0.8 2.8 307
16/09/2020 1:00 17.9 73 0.0 0 0.0 0.6 2.0 314
16/09/2020 1:10 17.6 74 0.0 0 0.0 0.8 3.0 322
16/09/2020 1:20 17.7 72 0.0 0 0.0 0.8 2.8 324
16/09/2020 1:30 17.6 73 0.0 0 0.0 1.0 3.4 327
16/09/2020 1:40 17.6 73 0.0 0 0.0 0.5 1.6 286
16/09/2020 1:50 17.6 71 0.0 0 0.0 1.3 4.6 323
16/09/2020 2:00 17.9 71 0.0 0 0.0 1.4 5.1 315
16/09/2020 2:10 18.2 69 0.0 0 0.0 1.2 4.3 320
16/09/2020 2:20 17.9 69 0.0 0 0.0 1.8 6.6 315
16/09/2020 2:30 18.5 67 0.0 0 0.0 1.5 5.5 318
16/09/2020 2:40 18.3 68 0.0 0 0.0 1.9 7.0 320
16/09/2020 2:50 18.3 69 0.0 0 0.0 1.8 6.5 319
16/09/2020 3:00 18.5 68 0.0 0 0.0 1.5 5.4 313
16/09/2020 3:10 18.6 67 0.0 0 0.0 1.1 4.1 304
16/09/2020 3:20 18.4 66 0.0 0 0.0 0.6 2.3 306
16/09/2020 3:30 17.1 72 0.0 0 0.0 1.2 4.4 318
16/09/2020 3:40 16.8 74 0.0 0 0.0 0.3 1.2 309
16/09/2020 3:50 17.6 70 0.0 0 0.0 0.3 1.2 107
16/09/2020 4:00 17.9 68 0.0 0 0.0 0.1 0.4 60
16/09/2020 4:10 17.9 67 0.0 0 0.0 0.0 0.1 132
16/09/2020 4:20 17.9 68 0.0 0 0.0 0.4 1.4 321
16/09/2020 4:30 18.2 67 0.0 0 0.0 0.4 1.3 314
16/09/2020 4:40 18.1 68 0.0 0 0.0 1.1 3.9 319
16/09/2020 4:50 18.2 66 0.0 0 0.0 0.8 2.8 310
16/09/2020 5:00 18.2 66 0.0 0 0.0 0.3 1.1 176
16/09/2020 5:10 17.9 66 0.0 0 0.0 0.4 1.3 3
16/09/2020 5:20 18.0 66 0.0 0 0.0 0.6 2.1 3
16/09/2020 5:30 17.7 68 0.0 0 0.0 1.1 3.8 312
16/09/2020 5:40 17.9 66 0.0 0 0.0 0.6 2.1 313
16/09/2020 5:50 17.6 68 0.0 0 0.0 0.7 2.6 12
16/09/2020 6:00 17.6 67 4.9 0 0.0 0.5 1.9 29
16/09/2020 6:10 17.8 68 27.7 212 0.0 0.6 2.0 5
16/09/2020 6:20 17.5 68 46.6 600 0.0 0.7 2.5 347
16/09/2020 6:30 17.6 68 69.8 600 0.0 0.6 2.2 62
16/09/2020 6:40 17.9 68 88.6 600 0.0 0.7 2.4 65
16/09/2020 6:50 18.2 67 109.1 600 0.0 0.4 1.5 357
16/09/2020 7:00 18.4 66 121.1 494 0.0 0.5 1.7 51
16/09/2020 7:10 18.9 66 163.3 600 0.0 0.8 2.7 19
16/09/2020 7:20 19.2 65 194.2 600 0.0 0.6 2.0 48
16/09/2020 7:30 19.5 64 220.3 600 0.0 0.5 1.9 30
16/09/2020 7:40 19.6 63 242.0 600 0.0 0.6 2.3 62
16/09/2020 7:50 20.1 62 269.4 600 0.0 1.2 4.2 104
16/09/2020 8:00 21.0 59 309.8 600 0.0 2.4 8.5 117
16/09/2020 8:10 21.3 57 339.5 600 0.0 2.2 8.0 117
16/09/2020 8:20 21.6 56 375.3 600 0.0 2.9 10.3 118
16/09/2020 8:30 22.0 56 404.3 600 0.0 2.3 8.4 105
16/09/2020 8:40 22.3 55 438.7 600 0.0 2.6 9.3 111
16/09/2020 8:50 22.7 54 468.9 600 0.0 2.6 9.2 111
16/09/2020 9:00 23.6 51 496.5 600 0.0 1.9 7.0 108
16/09/2020 9:10 23.8 51 522.3 600 0.0 2.5 9.1 104
16/09/2020 9:20 23.7 51 547.1 600 0.0 2.8 10.1 109
16/09/2020 9:30 23.8 50 571.2 600 0.0 2.6 9.4 120
16/09/2020 9:40 23.8 50 594.5 600 0.0 3.0 10.7 131
16/09/2020 9:50 24.0 49 613.5 600 0.0 2.3 8.1 134
16/09/2020 10:00 24.6 47 637.7 600 0.0 2.6 9.2 142
16/09/2020 10:10 25.2 46 651.8 600 0.0 2.0 7.1 103
16/09/2020 10:20 25.8 44 667.5 600 0.0 2.1 7.7 106
16/09/2020 10:30 26.3 43 682.7 600 0.0 2.2 7.8 105
16/09/2020 10:40 26.2 43 689.4 600 0.0 2.8 10.0 101
16/09/2020 10:50 26.2 43 699.5 600 0.0 2.7 9.8 106
16/09/2020 11:00 26.4 40 727.2 600 0.0 2.3 8.2 99
16/09/2020 11:10 27.2 40 722.8 600 0.0 1.6 5.9 89
16/09/2020 11:20 27.4 40 732.3 600 0.0 1.6 5.6 99
16/09/2020 11:30 27.7 39 745.2 600 0.0 2.5 8.9 103
16/09/2020 11:40 27.9 38 761.8 600 0.0 1.6 5.6 104
16/09/2020 11:50 28.0 37 772.3 600 0.0 1.1 3.9 87
16/09/2020 12:00 28.4 37 767.1 600 0.0 1.4 5.1 56
16/09/2020 12:10 28.4 34 742.1 600 0.0 1.1 3.9 82
16/09/2020 12:20 28.7 34 648.6 496 0.0 1.0 3.6 68
16/09/2020 12:30 29.1 32 714.2 582 0.0 1.0 3.7 103
16/09/2020 12:40 28.9 29 590.1 434 0.0 1.7 6.2 49
16/09/2020 12:50 28.0 30 677.2 566 0.0 1.9 6.7 58
16/09/2020 13:00 28.5 32 713.9 588 0.0 1.4 4.9 56
16/09/2020 13:10 29.0 31 730.7 600 0.0 1.0 3.7 30
16/09/2020 13:20 29.5 29 708.9 600 0.0 0.9 3.4 17
16/09/2020 13:30 28.9 31 723.3 600 0.0 1.3 4.5 327
16/09/2020 13:40 29.2 30 690.1 600 0.0 2.1 7.4 111
16/09/2020 13:50 29.3 30 644.5 600 0.0 1.8 6.4 37
16/09/2020 14:00 29.6 29 619.5 600 0.0 2.1 7.5 34
16/09/2020 14:10 29.0 29 551.6 600 0.0 1.5 5.4 39
16/09/2020 14:20 29.4 29 485.8 600 0.0 1.7 6.1 137
16/09/2020 14:30 29.4 28 387.0 554 0.0 1.4 4.9 186
16/09/2020 14:40 29.8 29 469.0 600 0.0 0.6 2.0 249
16/09/2020 14:50 29.8 28 296.6 102 0.0 1.8 6.4 185
16/09/2020 15:00 29.2 29 243.1 0 0.0 0.8 2.7 350
16/09/2020 15:10 28.4 29 261.3 30 0.0 0.5 1.7 51
16/09/2020 15:20 28.6 29 285.5 414 0.0 0.8 2.7 102
16/09/2020 15:30 28.8 29 319.2 600 0.0 2.1 7.7 125
16/09/2020 15:40 28.6 30 322.6 600 0.0 1.7 6.2 142
16/09/2020 15:50 29.0 30 321.0 600 0.0 1.9 6.9 99
16/09/2020 16:00 29.0 30 311.6 600 0.0 2.1 7.4 103
16/09/2020 16:10 28.9 30 338.3 600 0.0 2.0 7.1 88
16/09/2020 16:20 29.1 30 293.5 600 0.0 1.2 4.2 87
16/09/2020 16:30 29.1 31 240.8 600 0.0 1.1 4.0 74
16/09/2020 16:40 28.6 31 166.5 316 0.0 1.2 4.2 90
16/09/2020 16:50 28.0 32 123.6 0 0.0 1.8 6.3 131
16/09/2020 17:00 27.4 33 129.0 362 0.0 1.3 4.8 152
16/09/2020 17:10 27.3 34 112.2 294 0.0 0.7 2.6 145
16/09/2020 17:20 26.8 35 97.4 396 0.0 1.5 5.3 145
16/09/2020 17:30 26.7 35 75.6 208 0.0 1.2 4.1 141
16/09/2020 17:40 26.3 35 54.8 0 0.0 0.8 3.0 127
16/09/2020 17:50 26.0 36 42.5 372 0.0 1.2 4.2 84
16/09/2020 18:00 25.9 37 30.5 328 0.0 0.7 2.4 133
16/09/2020 18:10 25.2 38 10.4 0 0.0 0.4 1.5 105
16/09/2020 18:20 24.3 40 0.0 0 0.0 0.9 3.2 322
16/09/2020 18:30 23.9 41 0.0 0 0.0 1.0 3.5 284
16/09/2020 18:40 23.7 42 0.0 0 0.0 1.0 3.7 268
16/09/2020 18:50 23.4 42 0.0 0 0.0 1.3 4.5 321
16/09/2020 19:00 23.2 42 0.0 0 0.0 0.6 2.2 288
16/09/2020 19:10 23.1 42 0.0 0 0.0 0.3 1.1 266
16/09/2020 19:20 22.8 43 0.0 0 0.0 0.6 2.3 258
16/09/2020 19:30 22.7 45 0.0 0 0.0 0.4 1.5 264
16/09/2020 19:40 22.4 48 0.0 0 0.0 0.4 1.5 310
16/09/2020 19:50 22.1 50 0.0 0 0.0 1.2 4.4 336
16/09/2020 20:00 22.1 52 0.0 0 0.0 0.5 1.8 350
16/09/2020 20:10 22.5 52 0.0 0 0.0 0.3 0.9 263
16/09/2020 20:20 22.0 54 0.0 0 0.0 0.4 1.3 345
16/09/2020 20:30 21.9 55 0.0 0 0.0 0.2 0.8 340
16/09/2020 20:40 21.1 58 0.0 0 0.0 1.5 5.4 335
16/09/2020 20:50 20.9 59 0.0 0 0.0 1.1 4.0 312
16/09/2020 21:00 21.6 57 0.0 0 0.0 0.8 3.0 288
16/09/2020 21:10 21.1 59 0.0 0 0.0 1.5 5.5 301
16/09/2020 21:20 21.7 58 0.0 0 0.0 2.2 7.8 264
16/09/2020 21:30 21.5 59 0.0 0 0.0 1.6 5.8 278
16/09/2020 21:40 21.3 59 0.0 0 0.0 0.8 2.9 325
16/09/2020 21:50 21.4 58 0.0 0 0.0 1.2 4.3 262
16/09/2020 22:00 21.4 58 0.0 0 0.0 1.1 3.8 274
16/09/2020 22:10 20.7 61 0.0 0 0.0 1.3 4.6 299
16/09/2020 22:20 20.6 60 0.0 0 0.0 0.8 2.7 294
16/09/2020 22:30 20.7 60 0.0 0 0.0 0.4 1.6 294
16/09/2020 22:40 20.9 60 0.0 0 0.0 0.7 2.4 300
16/09/2020 22:50 21.0 60 0.0 0 0.0 0.5 1.7 254
16/09/2020 23:00 21.2 59 0.0 0 0.0 0.9 3.1 263
16/09/2020 23:10 20.4 62 0.0 0 0.0 0.6 2.2 299
16/09/2020 23:20 19.5 65 0.0 0 0.0 1.3 4.6 323
16/09/2020 23:30 19.5 65 0.0 0 0.0 0.8 2.7 303
16/09/2020 23:40 19.0 67 0.0 0 0.0 1.2 4.2 321
16/09/2020 23:50 19.4 65 0.0 0 0.0 1.1 3.9 307
Anterior Página 1 de 1 Siguiente

NOTA: Tipo de datos según el color:
   - Valores diarios o 10 minutos correctos
   - Valores diarios calculados a partir de un número de datos 10 minutos menor que 144 y mayor que 120, o de un número de datos semihorarios menor que 48 y mayor que 40 (caso de las estaciones de INTIA y del Ministerio)
   - Valores diez minutos estimados


Contacto        Enlaces        Aviso legal